Time;durP1;ratioP1;P1;durP2;ratioP2;P2;SDS_P1;SDS_P2;PMS_P1;PMS_P2;Temp;Humidity;BMP_temperature;BMP_pressure;BME280_temperature;BME280_humidity;BME280_pressure;Samples;Min_cycle;Max_cycle;Signal;HPM_P1;HPM_P2
2023/01/23 00:01:10;;;;;;;12.50;8.13;;;;;;;;;;5099507;28;20224;-96
2023/01/23 00:03:37;;;;;;;11.93;8.77;;;;;;;;;;5104446;28;20211;-96
2023/01/23 00:06:07;;;;;;;11.43;8.27;;;;;;;;;;5110546;28;20243;-96
2023/01/23 00:08:34;;;;;;;12.97;7.80;;;;;;;;;;5109898;28;20212;-95
2023/01/23 00:11:04;;;;;;;11.03;8.23;;;;;;;;;;5096165;28;20231;-96
2023/01/23 00:13:32;;;;;;;12.97;8.80;;;;;;;;;;5096313;28;20196;-96
2023/01/23 00:15:59;;;;;;;12.23;7.90;;;;;;;;;;5094472;28;20255;-96
2023/01/23 00:18:26;;;;;;;11.50;8.40;;;;;;;;;;5094591;28;20220;-96
2023/01/23 00:20:53;;;;;;;11.80;8.37;;;;;;;;;;5094082;28;20232;-96
2023/01/23 00:23:21;;;;;;;12.90;8.33;;;;;;;;;;5094335;28;20218;-96
2023/01/23 00:25:48;;;;;;;10.33;7.77;;;;;;;;;;5093481;28;20236;-96
2023/01/23 00:28:15;;;;;;;11.50;8.20;;;;;;;;;;5094118;28;20586;-96
2023/01/23 00:30:42;;;;;;;12.73;8.87;;;;;;;;;;5096296;28;20634;-96
2023/01/23 00:33:09;;;;;;;12.90;8.67;;;;;;;;;;5101522;28;20227;-96
2023/01/23 00:35:36;;;;;;;13.93;8.67;;;;;;;;;;5097056;28;20237;-96
2023/01/23 00:38:03;;;;;;;11.73;8.63;;;;;;;;;;5097428;28;20223;-96
2023/01/23 00:40:32;;;;;;;10.87;8.23;;;;;;;;;;5096986;28;20231;-96
2023/01/23 00:42:59;;;;;;;13.80;9.10;;;;;;;;;;5097777;28;20204;-96
2023/01/23 00:45:26;;;;;;;11.83;7.83;;;;;;;;;;5097242;28;20235;-96
2023/01/23 00:47:53;;;;;;;10.50;7.67;;;;;;;;;;5097347;28;20694;-96
2023/01/23 00:50:20;;;;;;;11.33;7.77;;;;;;;;;;5097249;28;20270;-96
2023/01/23 00:52:47;;;;;;;14.30;8.43;;;;;;;;;;5097008;28;20229;-96
2023/01/23 00:55:14;;;;;;;12.47;8.47;;;;;;;;;;5097014;28;20843;-96
2023/01/23 00:57:42;;;;;;;10.50;7.77;;;;;;;;;;5096941;28;20236;-96
2023/01/23 01:00:10;;;;;;;12.40;8.27;;;;;;;;;;5096729;28;20246;-96
2023/01/23 01:02:37;;;;;;;9.97;7.77;;;;;;;;;;5097149;28;20204;-96
2023/01/23 01:05:05;;;;;;;12.47;7.67;;;;;;;;;;5096659;28;20243;-96
2023/01/23 01:07:32;;;;;;;10.90;7.83;;;;;;;;;;5096904;28;20239;-96
2023/01/23 01:10:00;;;;;;;10.40;7.83;;;;;;;;;;5096143;28;20238;-95
2023/01/23 01:12:27;;;;;;;11.17;7.83;;;;;;;;;;5096835;28;20230;-96
2023/01/23 01:14:55;;;;;;;10.97;8.13;;;;;;;;;;5096352;28;20239;-96
2023/01/23 01:17:22;;;;;;;13.03;7.67;;;;;;;;;;5096739;28;20231;-96
2023/01/23 01:19:49;;;;;;;11.33;8.13;;;;;;;;;;5096230;28;20239;-96
2023/01/23 01:22:16;;;;;;;11.03;7.83;;;;;;;;;;5096932;28;20207;-96
2023/01/23 01:24:43;;;;;;;10.63;8.03;;;;;;;;;;5096216;28;20710;-96
2023/01/23 01:27:10;;;;;;;11.17;7.83;;;;;;;;;;5096320;28;20228;-96
2023/01/23 01:29:37;;;;;;;12.53;8.40;;;;;;;;;;5096253;28;20241;-95
2023/01/23 01:32:06;;;;;;;9.90;7.57;;;;;;;;;;5096252;28;20231;-95
2023/01/23 01:34:33;;;;;;;9.37;7.50;;;;;;;;;;5095849;28;20211;-96
2023/01/23 01:37:00;;;;;;;11.80;8.23;;;;;;;;;;5096310;28;20219;-96
2023/01/23 01:39:27;;;;;;;11.13;8.17;;;;;;;;;;5095543;28;20216;-96
2023/01/23 01:41:54;;;;;;;12.43;8.57;;;;;;;;;;5095402;28;20205;-96
2023/01/23 01:44:23;;;;;;;12.37;8.27;;;;;;;;;;5095856;28;20203;-96
2023/01/23 01:46:50;;;;;;;10.60;7.30;;;;;;;;;;5095878;28;20196;-95
2023/01/23 01:49:20;;;;;;;10.30;7.63;;;;;;;;;;5095465;28;20211;-96
2023/01/23 01:51:50;;;;;;;11.57;8.63;;;;;;;;;;5095585;28;20224;-96
2023/01/23 01:54:19;;;;;;;10.37;8.00;;;;;;;;;;5095582;28;20212;-95
2023/01/23 01:56:49;;;;;;;10.77;7.73;;;;;;;;;;5095859;28;20209;-95
2023/01/23 01:59:17;;;;;;;11.80;7.83;;;;;;;;;;5095445;28;20188;-95
2023/01/23 02:01:46;;;;;;;9.83;7.23;;;;;;;;;;5096451;28;20201;-96
2023/01/23 02:04:14;;;;;;;11.27;7.77;;;;;;;;;;5096006;28;20207;-96
2023/01/23 02:06:53;;;;;;;11.60;7.90;;;;;;;;;;5095563;28;20226;-96
2023/01/23 02:09:23;;;;;;;10.13;7.97;;;;;;;;;;5094870;28;20192;-95
2023/01/23 02:11:50;;;;;;;11.33;8.03;;;;;;;;;;5095543;28;20228;-95
2023/01/23 02:14:17;;;;;;;11.93;8.30;;;;;;;;;;5095437;28;20314;-95
2023/01/23 02:16:49;;;;;;;10.23;7.20;;;;;;;;;;5095432;28;20204;-96
2023/01/23 02:19:25;;;;;;;10.57;7.70;;;;;;;;;;5095301;28;20197;-94
2023/01/23 02:21:55;;;;;;;10.97;8.17;;;;;;;;;;5095584;28;20183;-95
2023/01/23 02:24:26;;;;;;;9.80;7.80;;;;;;;;;;5094761;28;20207;-96
2023/01/23 02:26:56;;;;;;;12.50;8.37;;;;;;;;;;5095588;28;20196;-95
2023/01/23 02:29:23;;;;;;;11.40;8.33;;;;;;;;;;5095078;28;20731;-95
2023/01/23 02:31:51;;;;;;;12.03;8.67;;;;;;;;;;5095640;28;20211;-95
2023/01/23 02:34:21;;;;;;;11.17;8.03;;;;;;;;;;5094798;28;20299;-96
2023/01/23 02:36:48;;;;;;;11.00;8.30;;;;;;;;;;5096683;28;20708;-95
2023/01/23 02:39:16;;;;;;;10.33;8.07;;;;;;;;;;5097032;28;20204;-95
2023/01/23 02:41:45;;;;;;;11.13;8.27;;;;;;;;;;5096282;28;20713;-96
2023/01/23 02:44:16;;;;;;;10.20;6.97;;;;;;;;;;5095529;28;20211;-95
2023/01/23 02:46:43;;;;;;;12.33;8.27;;;;;;;;;;5095256;28;20214;-95
2023/01/23 02:49:10;;;;;;;12.03;8.50;;;;;;;;;;5095395;28;20664;-95
2023/01/23 02:51:37;;;;;;;13.20;9.17;;;;;;;;;;5094550;28;20600;-96
2023/01/23 02:54:05;;;;;;;12.00;8.17;;;;;;;;;;5097032;28;20231;-95
2023/01/23 02:56:32;;;;;;;13.23;8.63;;;;;;;;;;5095485;28;20242;-95
2023/01/23 03:01:46;;;;;;;10.43;8.17;;;;;;;;;;5098158;28;20212;-95
2023/01/23 03:04:13;;;;;;;11.63;8.73;;;;;;;;;;5097360;28;20214;-95
2023/01/23 03:06:40;;;;;;;11.13;8.13;;;;;;;;;;5098558;28;20235;-95
2023/01/23 03:09:08;;;;;;;15.00;9.10;;;;;;;;;;5102777;28;20289;-96
2023/01/23 03:11:35;;;;;;;12.83;8.67;;;;;;;;;;5116002;28;20243;-96
2023/01/23 03:14:03;;;;;;;11.60;7.80;;;;;;;;;;5118520;28;20235;-95
2023/01/23 03:16:31;;;;;;;14.50;8.67;;;;;;;;;;5117948;28;20211;-95
2023/01/23 03:19:03;;;;;;;12.87;9.07;;;;;;;;;;5117956;28;20226;-95
2023/01/23 03:21:31;;;;;;;11.73;8.17;;;;;;;;;;5111235;28;20233;-96
2023/01/23 03:23:58;;;;;;;13.83;8.67;;;;;;;;;;5095469;28;20203;-95
2023/01/23 03:26:25;;;;;;;13.53;8.93;;;;;;;;;;5094149;28;20232;-96
2023/01/23 03:31:37;;;;;;;12.67;8.47;;;;;;;;;;5093819;28;20237;-96
2023/01/23 03:34:05;;;;;;;12.40;9.40;;;;;;;;;;5094735;28;20219;-95
2023/01/23 03:36:36;;;;;;;12.80;8.90;;;;;;;;;;5093321;28;20240;-96
2023/01/23 03:41:47;;;;;;;12.50;8.10;;;;;;;;;;5093698;28;20258;-96
2023/01/23 03:44:14;;;;;;;12.20;8.83;;;;;;;;;;5093095;28;20209;-95
2023/01/23 03:46:41;;;;;;;13.03;8.33;;;;;;;;;;5093922;28;20219;-96
2023/01/23 03:49:10;;;;;;;12.37;8.30;;;;;;;;;;5105679;28;20196;-95
2023/01/23 03:51:37;;;;;;;11.70;8.47;;;;;;;;;;5111840;28;20234;-95
2023/01/23 03:54:04;;;;;;;12.30;8.57;;;;;;;;;;5102858;28;20231;-95
2023/01/23 03:56:31;;;;;;;9.87;7.67;;;;;;;;;;5093173;28;20240;-96
2023/01/23 03:58:58;;;;;;;12.47;8.67;;;;;;;;;;5093396;28;20709;-95
2023/01/23 04:01:26;;;;;;;13.30;8.60;;;;;;;;;;5092958;28;20698;-96
2023/01/23 04:03:53;;;;;;;12.77;8.03;;;;;;;;;;5094071;28;20211;-96
2023/01/23 04:06:21;;;;;;;12.77;8.20;;;;;;;;;;5095922;28;20235;-96
2023/01/23 04:08:48;;;;;;;11.03;7.60;;;;;;;;;;5097442;28;20717;-96
2023/01/23 04:11:15;;;;;;;12.73;8.37;;;;;;;;;;5097081;28;20246;-96
2023/01/23 04:13:43;;;;;;;11.43;7.93;;;;;;;;;;5097672;28;20225;-96
2023/01/23 04:16:10;;;;;;;10.67;7.63;;;;;;;;;;5097134;28;20236;-96
2023/01/23 04:18:37;;;;;;;9.07;7.53;;;;;;;;;;5097993;28;20237;-94
2023/01/23 04:21:04;;;;;;;10.53;8.20;;;;;;;;;;5096946;28;20238;-95
2023/01/23 04:23:32;;;;;;;11.23;8.03;;;;;;;;;;5097787;28;20270;-96
2023/01/23 04:25:59;;;;;;;13.53;8.20;;;;;;;;;;5098254;28;20233;-96
2023/01/23 04:28:27;;;;;;;11.53;8.30;;;;;;;;;;5098616;28;20231;-96
2023/01/23 04:30:54;;;;;;;9.70;7.10;;;;;;;;;;5098043;28;20231;-94
2023/01/23 04:33:21;;;;;;;9.03;7.13;;;;;;;;;;5100017;28;20227;-93
2023/01/23 04:35:53;;;;;;;8.37;7.03;;;;;;;;;;5097196;28;20239;-93
2023/01/23 04:38:20;;;;;;;11.10;8.50;;;;;;;;;;5097374;28;20218;-94
2023/01/23 04:40:49;;;;;;;9.70;7.10;;;;;;;;;;5096764;28;20234;-94
2023/01/23 04:43:16;;;;;;;8.90;7.80;;;;;;;;;;5097372;28;20208;-94
2023/01/23 04:45:43;;;;;;;12.00;7.10;;;;;;;;;;5096857;28;20235;-94
2023/01/23 04:48:10;;;;;;;9.20;6.87;;;;;;;;;;5097634;28;20221;-96
2023/01/23 04:50:38;;;;;;;10.60;7.43;;;;;;;;;;5101590;28;20641;-95
2023/01/23 04:53:06;;;;;;;10.00;6.87;;;;;;;;;;5105085;28;20227;-95
2023/01/23 04:55:33;;;;;;;10.93;7.30;;;;;;;;;;5098530;28;20231;-96
2023/01/23 04:58:02;;;;;;;8.57;6.43;;;;;;;;;;5153553;22;20271;-93
2023/01/23 05:00:29;;;;;;;10.73;7.23;;;;;;;;;;5086957;28;20231;-92
2023/01/23 05:02:57;;;;;;;10.33;7.57;;;;;;;;;;5097227;28;20212;-94
2023/01/23 05:05:24;;;;;;;8.43;6.67;;;;;;;;;;5095790;28;20243;-93
2023/01/23 05:07:51;;;;;;;7.70;6.90;;;;;;;;;;5096374;28;20715;-91
2023/01/23 05:10:19;;;;;;;8.73;7.30;;;;;;;;;;5089905;28;20240;-88
2023/01/23 05:12:46;;;;;;;8.00;6.90;;;;;;;;;;5058346;28;20227;-89
2023/01/23 05:15:16;;;;;;;8.50;6.43;;;;;;;;;;5074302;28;20229;-92
2023/01/23 05:17:43;;;;;;;9.40;6.10;;;;;;;;;;5074302;28;20258;-92
2023/01/23 05:20:11;;;;;;;10.17;7.13;;;;;;;;;;5075200;28;20231;-92
2023/01/23 05:22:38;;;;;;;8.93;6.50;;;;;;;;;;5075235;28;20212;-91
2023/01/23 05:25:05;;;;;;;8.77;6.90;;;;;;;;;;5075209;28;20236;-92
2023/01/23 05:27:32;;;;;;;8.37;6.73;;;;;;;;;;5075607;28;20213;-92
2023/01/23 05:29:59;;;;;;;7.57;5.97;;;;;;;;;;5074823;28;20232;-91
2023/01/23 05:32:28;;;;;;;7.50;6.20;;;;;;;;;;5075031;28;20197;-92
2023/01/23 05:34:55;;;;;;;8.47;7.03;;;;;;;;;;5074593;28;20240;-92
2023/01/23 05:37:24;;;;;;;11.20;6.87;;;;;;;;;;5075254;28;20217;-92
2023/01/23 05:39:51;;;;;;;8.47;6.83;;;;;;;;;;5074296;28;20323;-92
2023/01/23 05:42:18;;;;;;;7.20;6.00;;;;;;;;;;5074805;28;20292;-92
2023/01/23 05:44:45;;;;;;;7.00;6.00;;;;;;;;;;5074778;28;20259;-92
2023/01/23 05:47:13;;;;;;;7.43;5.90;;;;;;;;;;5075838;28;20216;-92
2023/01/23 05:49:41;;;;;;;9.37;6.70;;;;;;;;;;5074533;28;20229;-92
2023/01/23 05:52:08;;;;;;;7.10;5.90;;;;;;;;;;5076162;28;20211;-92
2023/01/23 05:54:35;;;;;;;8.33;6.60;;;;;;;;;;5088853;28;20228;-91
2023/01/23 05:57:02;;;;;;;14.33;6.40;;;;;;;;;;5097136;28;20208;-91
2023/01/23 05:59:29;;;;;;;8.30;6.33;;;;;;;;;;5089216;28;20228;-92
2023/01/23 06:01:56;;;;;;;8.03;6.93;;;;;;;;;;5083974;28;20200;-92
2023/01/23 06:04:24;;;;;;;6.80;5.87;;;;;;;;;;5093944;28;20230;-92
2023/01/23 06:06:53;;;;;;;8.40;6.47;;;;;;;;;;5095255;28;20643;-90
2023/01/23 06:09:20;;;;;;;9.57;7.00;;;;;;;;;;5093435;28;20231;-91
2023/01/23 06:11:47;;;;;;;7.20;6.17;;;;;;;;;;5081027;28;20216;-87
2023/01/23 06:14:14;;;;;;;7.83;6.60;;;;;;;;;;5072090;28;20235;-87
2023/01/23 06:16:41;;;;;;;9.10;6.70;;;;;;;;;;5072965;28;20208;-86
2023/01/23 06:19:08;;;;;;;8.63;7.03;;;;;;;;;;5073405;28;20235;-87
2023/01/23 06:21:36;;;;;;;7.83;6.37;;;;;;;;;;5072318;28;20235;-89
2023/01/23 06:24:04;;;;;;;9.43;7.23;;;;;;;;;;5073083;28;20219;-86
2023/01/23 06:26:31;;;;;;;8.50;6.47;;;;;;;;;;5073691;28;20237;-87
2023/01/23 06:28:58;;;;;;;8.63;6.33;;;;;;;;;;5073298;28;20227;-87
2023/01/23 06:31:25;;;;;;;8.40;5.97;;;;;;;;;;5072320;28;20240;-87
2023/01/23 06:33:53;;;;;;;7.73;6.60;;;;;;;;;;5072345;28;20293;-86
2023/01/23 06:36:20;;;;;;;8.83;6.20;;;;;;;;;;5072143;28;20243;-87
2023/01/23 06:38:47;;;;;;;6.47;5.13;;;;;;;;;;5072705;28;20232;-87
2023/01/23 06:41:15;;;;;;;7.40;6.23;;;;;;;;;;5072265;28;20239;-87
2023/01/23 06:43:43;;;;;;;8.80;6.37;;;;;;;;;;5072350;28;20206;-87
2023/01/23 06:46:10;;;;;;;8.67;6.47;;;;;;;;;;5071979;28;20587;-88
2023/01/23 06:48:37;;;;;;;9.03;6.97;;;;;;;;;;5072522;28;20594;-88
2023/01/23 06:51:04;;;;;;;7.93;6.43;;;;;;;;;;5072256;28;20655;-88
2023/01/23 06:53:31;;;;;;;8.20;6.87;;;;;;;;;;5072808;28;20228;-87
2023/01/23 06:56:00;;;;;;;7.23;5.90;;;;;;;;;;5072031;28;20244;-88
2023/01/23 06:58:28;;;;;;;8.07;6.27;;;;;;;;;;5072393;28;20232;-87
2023/01/23 07:00:55;;;;;;;7.53;5.63;;;;;;;;;;5071829;28;20283;-88
2023/01/23 07:03:22;;;;;;;9.50;6.43;;;;;;;;;;5071953;28;20668;-87
2023/01/23 07:05:49;;;;;;;8.13;6.30;;;;;;;;;;5071532;28;20259;-88
2023/01/23 07:08:16;;;;;;;7.00;6.03;;;;;;;;;;5072129;28;20558;-88
2023/01/23 07:10:44;;;;;;;8.23;6.10;;;;;;;;;;5071725;28;20233;-88
2023/01/23 07:13:11;;;;;;;7.40;5.93;;;;;;;;;;5072003;28;20209;-86
2023/01/23 07:15:40;;;;;;;9.97;6.33;;;;;;;;;;5071421;28;20282;-87
2023/01/23 07:18:07;;;;;;;7.93;6.47;;;;;;;;;;5071908;28;20704;-87
2023/01/23 07:20:34;;;;;;;7.10;5.90;;;;;;;;;;5071251;28;20231;-87
2023/01/23 07:23:01;;;;;;;7.07;6.27;;;;;;;;;;5069101;28;20209;-87
2023/01/23 07:25:29;;;;;;;7.17;5.93;;;;;;;;;;5056793;28;20602;-87
2023/01/23 07:27:56;;;;;;;8.03;6.00;;;;;;;;;;5055159;28;20308;-87
2023/01/23 07:30:23;;;;;;;8.30;6.10;;;;;;;;;;5080139;28;20225;-87
2023/01/23 07:32:52;;;;;;;7.60;5.60;;;;;;;;;;5071803;28;20201;-87
2023/01/23 07:35:19;;;;;;;7.53;6.20;;;;;;;;;;5071071;28;20240;-87
2023/01/23 07:37:49;;;;;;;6.77;5.60;;;;;;;;;;5072022;28;20320;-87
2023/01/23 07:40:16;;;;;;;8.40;5.77;;;;;;;;;;5070943;28;20236;-87
2023/01/23 07:42:45;;;;;;;7.20;5.87;;;;;;;;;;5076810;28;20209;-86
2023/01/23 07:45:13;;;;;;;8.03;5.97;;;;;;;;;;5086916;28;20239;-87
2023/01/23 07:47:40;;;;;;;6.70;5.73;;;;;;;;;;5087001;28;20236;-87
2023/01/23 07:50:09;;;;;;;10.23;6.73;;;;;;;;;;5072068;28;20254;-87
2023/01/23 07:52:36;;;;;;;7.13;6.13;;;;;;;;;;5070990;28;20212;-87
2023/01/23 07:55:03;;;;;;;8.50;6.33;;;;;;;;;;5075533;28;20601;-86
2023/01/23 07:57:32;;;;;;;10.80;6.43;;;;;;;;;;5071320;28;20665;-88
2023/01/23 07:59:59;;;;;;;8.10;6.27;;;;;;;;;;5071007;28;20579;-87
2023/01/23 08:02:26;;;;;;;7.90;6.60;;;;;;;;;;5069646;28;20197;-87
2023/01/23 08:04:53;;;;;;;13.67;6.20;;;;;;;;;;5070638;28;20319;-87
2023/01/23 08:07:22;;;;;;;8.07;6.57;;;;;;;;;;5070914;28;20286;-87
2023/01/23 08:09:49;;;;;;;8.93;6.73;;;;;;;;;;5071007;28;20231;-87
2023/01/23 08:12:16;;;;;;;9.00;6.43;;;;;;;;;;5071139;28;20209;-87
2023/01/23 08:14:43;;;;;;;10.53;6.10;;;;;;;;;;5070579;28;20244;-86
2023/01/23 08:17:10;;;;;;;8.70;6.97;;;;;;;;;;5071671;28;20251;-87
2023/01/23 08:19:37;;;;;;;8.17;5.93;;;;;;;;;;5070713;28;20232;-86
2023/01/23 08:22:05;;;;;;;8.07;6.47;;;;;;;;;;5071156;28;20197;-87
2023/01/23 08:24:33;;;;;;;8.93;6.23;;;;;;;;;;5070340;28;20212;-87
2023/01/23 08:27:00;;;;;;;6.17;5.57;;;;;;;;;;5071436;28;20562;-87
2023/01/23 08:29:27;;;;;;;7.63;5.80;;;;;;;;;;5070477;28;20240;-87
2023/01/23 08:31:54;;;;;;;6.17;5.57;;;;;;;;;;5070916;28;20234;-87
2023/01/23 08:34:22;;;;;;;6.03;5.43;;;;;;;;;;5070253;28;20228;-87
2023/01/23 08:36:50;;;;;;;8.67;6.23;;;;;;;;;;5071124;28;20209;-87
2023/01/23 08:39:17;;;;;;;7.40;6.00;;;;;;;;;;5070495;28;20237;-86
2023/01/23 08:41:45;;;;;;;7.07;5.43;;;;;;;;;;5071035;28;20205;-87
2023/01/23 08:44:13;;;;;;;6.27;5.47;;;;;;;;;;5070215;28;20216;-87
2023/01/23 08:46:40;;;;;;;6.97;5.80;;;;;;;;;;5071200;28;20185;-87
2023/01/23 08:49:07;;;;;;;6.70;6.00;;;;;;;;;;5070709;28;20742;-87
2023/01/23 08:51:34;;;;;;;7.47;5.60;;;;;;;;;;5071881;28;20236;-87
2023/01/23 08:54:01;;;;;;;7.60;6.50;;;;;;;;;;5074897;28;20239;-87
2023/01/23 08:56:28;;;;;;;7.50;6.63;;;;;;;;;;5073949;28;20240;-87
2023/01/23 08:58:58;;;;;;;10.03;6.13;;;;;;;;;;5078737;28;20228;-87
2023/01/23 09:01:26;;;;;;;8.27;6.37;;;;;;;;;;5073674;28;20650;-87
2023/01/23 09:03:53;;;;;;;9.80;6.57;;;;;;;;;;5074563;28;20215;-86
2023/01/23 09:06:21;;;;;;;8.90;6.40;;;;;;;;;;5073570;28;20251;-87
2023/01/23 09:08:49;;;;;;;7.57;6.30;;;;;;;;;;5074586;28;20316;-87
2023/01/23 09:11:17;;;;;;;9.80;6.40;;;;;;;;;;5074079;28;20286;-87
2023/01/23 09:13:44;;;;;;;7.67;6.40;;;;;;;;;;5073867;28;20211;-87
2023/01/23 09:16:12;;;;;;;7.40;6.17;;;;;;;;;;5073872;28;20236;-87
2023/01/23 09:18:39;;;;;;;9.00;7.00;;;;;;;;;;5074087;28;20233;-88
2023/01/23 09:21:07;;;;;;;7.17;6.10;;;;;;;;;;5073669;28;20247;-87
2023/01/23 09:23:34;;;;;;;7.83;6.40;;;;;;;;;;5074055;28;20212;-87
2023/01/23 09:26:06;;;;;;;8.83;7.00;;;;;;;;;;5073399;28;20241;-87
2023/01/23 09:28:33;;;;;;;9.67;6.63;;;;;;;;;;5070972;28;20235;-87
2023/01/23 09:31:03;;;;;;;8.67;6.23;;;;;;;;;;5059924;28;20586;-87
2023/01/23 09:33:32;;;;;;;10.07;6.67;;;;;;;;;;5094614;28;20192;-87
2023/01/23 09:35:59;;;;;;;7.57;5.87;;;;;;;;;;5093533;28;20229;-87
2023/01/23 09:38:26;;;;;;;10.63;6.93;;;;;;;;;;5094146;28;20228;-88
2023/01/23 09:40:54;;;;;;;8.70;5.93;;;;;;;;;;5094621;28;20236;-87
2023/01/23 09:43:24;;;;;;;8.30;6.47;;;;;;;;;;5100284;28;20205;-87
2023/01/23 09:45:58;;;;;;;8.10;6.40;;;;;;;;;;5095949;28;20698;-87
2023/01/23 09:48:28;;;;;;;9.20;6.70;;;;;;;;;;5076592;28;20689;-89
2023/01/23 09:50:59;;;;;;;9.13;6.57;;;;;;;;;;5074357;28;20229;-88
2023/01/23 09:53:29;;;;;;;10.17;7.20;;;;;;;;;;5074084;28;20186;-88
2023/01/23 09:55:58;;;;;;;8.53;6.50;;;;;;;;;;5074067;28;20237;-89
2023/01/23 09:58:26;;;;;;;8.30;7.03;;;;;;;;;;5074889;28;20237;-89
2023/01/23 10:00:54;;;;;;;9.67;7.87;;;;;;;;;;5074114;28;20739;-89
2023/01/23 10:03:22;;;;;;;11.90;6.90;;;;;;;;;;5073764;28;20216;-89
2023/01/23 10:05:59;;;;;;;9.00;7.30;;;;;;;;;;5074734;28;20232;-89
2023/01/23 10:08:32;;;;;;;10.20;6.87;;;;;;;;;;5075867;28;20622;-90
2023/01/23 10:10:59;;;;;;;7.77;6.37;;;;;;;;;;5075050;28;20232;-90
2023/01/23 10:13:49;;;;;;;7.87;6.37;;;;;;;;;;5074696;28;20204;-90
2023/01/23 10:16:31;;;;;;;7.03;6.13;;;;;;;;;;5074599;28;20713;-90
2023/01/23 10:19:03;;;;;;;7.77;6.80;;;;;;;;;;5087916;28;20232;-89
2023/01/23 10:21:33;;;;;;;8.43;6.87;;;;;;;;;;5094336;28;20236;-90
2023/01/23 10:24:05;;;;;;;6.53;5.60;;;;;;;;;;5096057;28;20193;-91
2023/01/23 10:26:34;;;;;;;7.63;5.73;;;;;;;;;;5095327;28;20228;-90
2023/01/23 10:29:03;;;;;;;7.27;6.13;;;;;;;;;;5095717;28;20229;-91
2023/01/23 10:31:34;;;;;;;7.77;6.00;;;;;;;;;;5095358;28;20239;-90
2023/01/23 10:34:04;;;;;;;6.70;6.00;;;;;;;;;;5095466;28;20204;-91
2023/01/23 10:36:35;;;;;;;6.90;5.47;;;;;;;;;;5095154;28;20258;-90
2023/01/23 10:39:07;;;;;;;7.97;6.77;;;;;;;;;;5095678;28;20217;-90
2023/01/23 10:41:34;;;;;;;7.07;6.17;;;;;;;;;;5093557;28;20240;-90
2023/01/23 10:44:02;;;;;;;6.43;5.83;;;;;;;;;;5095986;28;20215;-92
2023/01/23 10:46:31;;;;;;;7.57;5.73;;;;;;;;;;5095215;28;20742;-90
2023/01/23 10:49:00;;;;;;;9.40;6.10;;;;;;;;;;5076705;28;20314;-92
2023/01/23 10:51:28;;;;;;;5.97;5.37;;;;;;;;;;5075408;28;20719;-90
2023/01/23 10:54:03;;;;;;;5.63;5.13;;;;;;;;;;5076782;28;20569;-93
2023/01/23 10:56:31;;;;;;;6.23;5.50;;;;;;;;;;5075562;28;20233;-92
2023/01/23 10:58:59;;;;;;;9.70;5.37;;;;;;;;;;5074378;28;20239;-85
2023/01/23 11:01:27;;;;;;;7.03;6.13;;;;;;;;;;5071414;28;20240;-84
2023/01/23 11:03:54;;;;;;;8.03;5.93;;;;;;;;;;5071925;28;20567;-84
2023/01/23 11:06:24;;;;;;;7.20;6.07;;;;;;;;;;5071339;28;20233;-84
2023/01/23 11:08:52;;;;;;;6.83;5.07;;;;;;;;;;5071797;28;20233;-83
2023/01/23 11:11:21;;;;;;;6.90;5.93;;;;;;;;;;5071018;28;20716;-84
2023/01/23 11:13:50;;;;;;;5.83;5.27;;;;;;;;;;5071791;28;20213;-85
2023/01/23 11:16:18;;;;;;;6.60;5.50;;;;;;;;;;5071105;28;20236;-85
2023/01/23 11:18:49;;;;;;;6.10;5.00;;;;;;;;;;5071570;28;20263;-83
2023/01/23 11:21:23;;;;;;;6.40;5.80;;;;;;;;;;5071276;28;20232;-83
2023/01/23 11:24:07;;;;;;;5.77;5.17;;;;;;;;;;5071713;28;20194;-84
2023/01/23 11:26:35;;;;;;;6.20;5.57;;;;;;;;;;5070872;28;20244;-83
2023/01/23 11:29:19;;;;;;;6.33;5.27;;;;;;;;;;5071857;28;20274;-87
2023/01/23 11:31:47;;;;;;;6.40;5.63;;;;;;;;;;5071673;28;20226;-83
2023/01/23 11:34:14;;;;;;;6.60;5.40;;;;;;;;;;5070592;28;20197;-84
2023/01/23 11:36:45;;;;;;;6.37;5.53;;;;;;;;;;5071122;28;20232;-86
2023/01/23 11:39:17;;;;;;;6.83;5.30;;;;;;;;;;5071325;28;20737;-85
2023/01/23 11:41:44;;;;;;;5.83;5.23;;;;;;;;;;5071206;28;20233;-85
2023/01/23 11:44:17;;;;;;;6.20;4.77;;;;;;;;;;5071390;28;20210;-84
2023/01/23 11:46:50;;;;;;;5.63;5.03;;;;;;;;;;5070733;28;20593;-83
2023/01/23 11:49:25;;;;;;;6.80;5.93;;;;;;;;;;5070647;28;20631;-84
2023/01/23 11:51:56;;;;;;;7.03;5.20;;;;;;;;;;5071494;28;20220;-84
2023/01/23 11:54:35;;;;;;;6.43;5.57;;;;;;;;;;5070708;28;20201;-84
2023/01/23 11:57:05;;;;;;;5.67;5.10;;;;;;;;;;5051134;28;20621;-83
2023/01/23 12:00:06;;;;;;;6.43;5.83;;;;;;;;;;5066214;28;20252;-84
2023/01/23 12:02:50;;;;;;;6.37;5.77;;;;;;;;;;5008916;28;20199;-84
2023/01/23 12:05:28;;;;;;;5.83;5.20;;;;;;;;;;5008421;28;20258;-84
2023/01/23 12:08:02;;;;;;;6.10;5.50;;;;;;;;;;5048605;28;20229;-84
2023/01/23 12:10:33;;;;;;;5.50;4.93;;;;;;;;;;5070643;28;20232;-83
2023/01/23 12:13:16;;;;;;;6.13;5.53;;;;;;;;;;5070926;28;20216;-83
2023/01/23 12:15:47;;;;;;;6.10;5.50;;;;;;;;;;5068430;28;20241;-83
2023/01/23 12:18:22;;;;;;;6.63;5.33;;;;;;;;;;5070482;28;20704;-83
2023/01/23 12:20:53;;;;;;;6.07;5.47;;;;;;;;;;5070419;28;20229;-83
2023/01/23 12:23:26;;;;;;;5.50;5.00;;;;;;;;;;5070459;28;20214;-83
2023/01/23 12:25:58;;;;;;;6.73;5.30;;;;;;;;;;5070537;28;20234;-84
2023/01/23 12:28:31;;;;;;;6.70;5.53;;;;;;;;;;5074773;28;20253;-83
2023/01/23 12:31:08;;;;;;;6.13;5.53;;;;;;;;;;5074515;28;20235;-84
2023/01/23 12:33:46;;;;;;;5.93;5.07;;;;;;;;;;5074380;28;20666;-84
2023/01/23 12:36:18;;;;;;;6.70;5.63;;;;;;;;;;5054129;28;20235;-84
2023/01/23 12:38:52;;;;;;;9.70;5.77;;;;;;;;;;5064247;28;20257;-84
2023/01/23 12:41:31;;;;;;;6.17;4.77;;;;;;;;;;5074302;28;20229;-83
2023/01/23 12:44:02;;;;;;;5.90;5.30;;;;;;;;;;5074588;28;20204;-84
2023/01/23 12:46:32;;;;;;;6.03;5.43;;;;;;;;;;5073726;28;20231;-84
2023/01/23 12:49:06;;;;;;;6.30;5.47;;;;;;;;;;5074813;28;20241;-84
2023/01/23 12:51:35;;;;;;;6.87;5.30;;;;;;;;;;5073626;28;20230;-84
2023/01/23 12:54:05;;;;;;;6.33;5.57;;;;;;;;;;5074351;28;20307;-84
2023/01/23 12:56:34;;;;;;;6.27;5.50;;;;;;;;;;5073672;28;20723;-84
2023/01/23 12:59:07;;;;;;;5.93;5.33;;;;;;;;;;5074072;28;20596;-84
2023/01/23 13:01:52;;;;;;;6.53;5.83;;;;;;;;;;5073453;28;20258;-83
2023/01/23 13:04:26;;;;;;;6.30;5.30;;;;;;;;;;5053787;28;20192;-84
2023/01/23 13:06:59;;;;;;;5.93;5.00;;;;;;;;;;5054492;28;20641;-84
2023/01/23 13:09:36;;;;;;;6.67;5.80;;;;;;;;;;5072553;28;20229;-84
2023/01/23 13:12:10;;;;;;;6.17;5.60;;;;;;;;;;5074015;28;20197;-84
2023/01/23 13:14:44;;;;;;;6.63;5.87;;;;;;;;;;5073671;28;20292;-84
2023/01/23 13:17:28;;;;;;;6.27;5.57;;;;;;;;;;5073367;28;20312;-84
2023/01/23 13:22:53;;;;;;;7.83;6.07;;;;;;;;;;5063192;28;20584;-84
2023/01/23 13:25:20;;;;;;;6.50;5.63;;;;;;;;;;5058678;28;20231;-84
2023/01/23 13:27:50;;;;;;;6.13;5.20;;;;;;;;;;5073492;28;20226;-84
2023/01/23 13:30:50;;;;;;;7.87;5.43;;;;;;;;;;5061976;28;20245;-84
2023/01/23 13:33:35;;;;;;;6.23;5.20;;;;;;;;;;4993777;28;20565;-84
2023/01/23 13:36:14;;;;;;;5.80;5.20;;;;;;;;;;5010180;28;20226;-84
2023/01/23 13:38:41;;;;;;;7.87;5.20;;;;;;;;;;5050358;28;20238;-84
2023/01/23 13:41:27;;;;;;;7.30;5.13;;;;;;;;;;5068418;28;20597;-84
2023/01/23 13:43:54;;;;;;;6.37;5.73;;;;;;;;;;5065561;28;20285;-86
2023/01/23 13:46:27;;;;;;;5.47;4.97;;;;;;;;;;5052661;28;20328;-87
2023/01/23 13:51:46;;;;;;;5.47;4.97;;;;;;;;;;5052871;28;20228;-89
2023/01/23 13:57:00;;;;;;;6.73;5.40;;;;;;;;;;5053605;28;20233;-85
2023/01/23 13:59:30;;;;;;;6.60;5.40;;;;;;;;;;5056726;28;20236;-84
2023/01/23 14:05:13;;;;;;;8.10;5.60;;;;;;;;;;5075063;28;20270;-84
2023/01/23 14:07:43;;;;;;;6.93;5.57;;;;;;;;;;5073567;28;20243;-84
2023/01/23 14:10:18;;;;;;;5.53;5.00;;;;;;;;;;5073502;28;20236;-84
2023/01/23 14:12:45;;;;;;;6.63;5.87;;;;;;;;;;5073106;28;20239;-85
2023/01/23 14:18:14;;;;;;;7.67;5.60;;;;;;;;;;5074116;28;20215;-86
2023/01/23 14:20:41;;;;;;;6.47;5.23;;;;;;;;;;5065120;28;20227;-85
2023/01/23 14:23:16;;;;;;;7.73;6.00;;;;;;;;;;5053214;28;20212;-85
2023/01/23 14:25:44;;;;;;;5.57;4.97;;;;;;;;;;5053624;28;20241;-85
2023/01/23 14:28:15;;;;;;;7.00;5.50;;;;;;;;;;5052760;28;20276;-85
2023/01/23 14:30:52;;;;;;;6.23;5.13;;;;;;;;;;5052332;28;20246;-85
2023/01/23 14:33:19;;;;;;;7.23;5.40;;;;;;;;;;5052551;28;20590;-86
2023/01/23 14:35:47;;;;;;;6.53;5.00;;;;;;;;;;5052117;28;20240;-85
2023/01/23 14:38:23;;;;;;;5.40;4.90;;;;;;;;;;5052863;28;20244;-85
2023/01/23 14:40:50;;;;;;;5.90;5.10;;;;;;;;;;5051954;28;20283;-85
2023/01/23 14:43:18;;;;;;;5.50;4.90;;;;;;;;;;5052448;28;20209;-85
2023/01/23 14:45:47;;;;;;;5.40;4.90;;;;;;;;;;5051844;28;20238;-85
2023/01/23 14:48:16;;;;;;;5.57;4.93;;;;;;;;;;5052975;28;20236;-85
2023/01/23 14:50:43;;;;;;;6.43;4.67;;;;;;;;;;5051541;28;20234;-85
2023/01/23 14:53:13;;;;;;;5.30;4.80;;;;;;;;;;5054514;28;20202;-85
2023/01/23 14:55:43;;;;;;;5.53;4.60;;;;;;;;;;5071327;28;20929;-84
2023/01/23 14:58:13;;;;;;;5.23;4.73;;;;;;;;;;5072093;28;20233;-84
2023/01/23 15:00:41;;;;;;;5.93;5.33;;;;;;;;;;5072167;28;20256;-85
2023/01/23 15:03:11;;;;;;;5.27;4.77;;;;;;;;;;5072511;28;20207;-84
2023/01/23 15:05:40;;;;;;;7.27;4.90;;;;;;;;;;5072242;28;20619;-85
2023/01/23 15:08:19;;;;;;;5.27;4.77;;;;;;;;;;5072432;28;20256;-85
2023/01/23 15:10:48;;;;;;;6.17;4.90;;;;;;;;;;5071908;28;20301;-85
2023/01/23 15:13:21;;;;;;;5.33;4.70;;;;;;;;;;5072532;28;20236;-85